Time;durP1;ratioP1;P1;durP2;ratioP2;P2;SDS_P1;SDS_P2;PMS_P1;PMS_P2;Temp;Humidity;BMP_temperature;BMP_pressure;BME280_temperature;BME280_humidity;BME280_pressure;Samples;Min_cycle;Max_cycle;Signal;HPM_P1;HPM_P2
2023/02/02 00:00:44;;;;;;;;;;;;;;;4.57;77.91;100372.88;4121355;28;20341;-63
2023/02/02 00:02:46;;;;;;;;;;;;;;;4.58;78.01;100331.78;4122622;28;20025;-64
2023/02/02 00:04:47;;;;;;;;;;;;;;;4.61;77.81;100336.81;4122322;28;19957;-62
2023/02/02 00:06:49;;;;;;;;;;;;;;;4.64;77.61;100339.19;4122840;28;20033;-63
2023/02/02 00:08:52;;;;;;;;;;;;;;;4.65;77.77;100345.38;4123120;28;20021;-63
2023/02/02 00:10:54;;;;;;;;;;;;;;;4.62;77.55;100351.84;4122438;28;20028;-63
2023/02/02 00:12:57;;;;;;;;;;;;;;;4.60;77.59;100329.78;4121884;28;20026;-63
2023/02/02 00:14:59;;;;;;;;;;;;;;;4.61;77.73;100338.66;4123307;28;20041;-63
2023/02/02 00:17:02;;;;;;;;;;;;;;;4.59;77.70;100320.09;4120549;28;20017;-63
2023/02/02 00:19:04;;;;;;;;;;;;;;;4.60;77.83;100337.81;4122237;28;20024;-62
2023/02/02 00:21:07;;;;;;;;;;;;;;;4.66;77.72;100314.97;4122556;28;20056;-63
2023/02/02 00:23:09;;;;;;;;;;;;;;;4.61;77.78;100317.25;4123963;28;20020;-63
2023/02/02 00:25:11;;;;;;;;;;;;;;;4.59;77.73;100325.44;4122296;28;19933;-63
2023/02/02 00:27:13;;;;;;;;;;;;;;;4.59;77.80;100319.22;4122907;28;20029;-66
2023/02/02 00:29:17;;;;;;;;;;;;;;;4.65;77.64;100340.03;4122743;28;20016;-63
2023/02/02 00:31:19;;;;;;;;;;;;;;;4.68;77.76;100321.84;4120864;28;20052;-63
2023/02/02 00:33:21;;;;;;;;;;;;;;;4.68;77.89;100326.38;4122189;28;20024;-63
2023/02/02 00:35:23;;;;;;;;;;;;;;;4.69;77.58;100320.88;4121235;28;20033;-63
2023/02/02 00:37:25;;;;;;;;;;;;;;;4.69;77.35;100312.00;4121534;28;20024;-63
2023/02/02 00:39:28;;;;;;;;;;;;;;;4.71;77.42;100312.69;4122373;28;20404;-63
2023/02/02 00:41:30;;;;;;;;;;;;;;;4.67;77.25;100320.19;4121382;28;20029;-63
2023/02/02 00:43:32;;;;;;;;;;;;;;;4.71;77.56;100302.00;4120085;28;20049;-62
2023/02/02 00:45:34;;;;;;;;;;;;;;;4.73;77.38;100308.03;4122336;28;19938;-63
2023/02/02 00:47:36;;;;;;;;;;;;;;;4.74;77.29;100320.41;4121676;28;20361;-63
2023/02/02 00:49:38;;;;;;;;;;;;;;;4.77;77.27;100314.75;4121584;28;20467;-63
2023/02/02 00:51:40;;;;;;;;;;;;;;;4.72;77.38;100311.72;4121877;28;20032;-64
2023/02/02 00:53:42;;;;;;;;;;;;;;;4.74;77.22;100296.34;4121999;28;20029;-63
2023/02/02 00:55:44;;;;;;;;;;;;;;;4.73;77.43;100299.16;4121638;28;20046;-63
2023/02/02 00:57:46;;;;;;;;;;;;;;;4.72;77.18;100297.47;4137159;28;20534;-63
2023/02/02 00:59:48;;;;;;;;;;;;;;;4.77;77.05;100300.56;4122588;28;20037;-62
2023/02/02 01:01:52;;;;;;;;;;;;;;;4.75;77.33;100303.38;4121973;28;20472;-62
2023/02/02 01:03:54;;;;;;;;;;;;;;;4.81;77.15;100293.91;4121114;28;20436;-63
2023/02/02 01:05:56;;;;;;;;;;;;;;;4.84;76.87;100302.50;4113265;28;20389;-64
2023/02/02 01:07:58;;;;;;;;;;;;;;;4.84;76.93;100309.66;4121637;28;20005;-64
2023/02/02 01:10:00;;;;;;;;;;;;;;;4.82;76.69;100307.13;4122016;28;20033;-64
2023/02/02 01:12:02;;;;;;;;;;;;;;;4.82;76.94;100317.81;4121190;28;20009;-63
2023/02/02 01:14:04;;;;;;;;;;;;;;;4.84;76.89;100310.50;4122249;28;20017;-64
2023/02/02 01:16:06;;;;;;;;;;;;;;;4.87;76.72;100334.28;4120827;28;20410;-63
2023/02/02 01:18:09;;;;;;;;;;;;;;;4.87;77.08;100312.03;4121913;28;20033;-63
2023/02/02 01:20:15;;;;;;;;;;;;;;;4.89;76.81;100323.44;4120927;28;20438;-63
2023/02/02 01:22:17;;;;;;;;;;;;;;;4.87;77.07;100315.56;4121176;28;20020;-63
2023/02/02 01:24:20;;;;;;;;;;;;;;;4.87;77.09;100301.31;4121979;28;20378;-63
2023/02/02 01:26:22;;;;;;;;;;;;;;;4.88;76.81;100313.72;4121293;28;19949;-64
2023/02/02 01:28:24;;;;;;;;;;;;;;;4.88;77.01;100287.78;4121763;28;20004;-63
2023/02/02 01:30:26;;;;;;;;;;;;;;;4.90;77.31;100322.44;4121063;28;20036;-63
2023/02/02 01:32:28;;;;;;;;;;;;;;;4.87;77.27;100323.59;4121891;28;20036;-63
2023/02/02 01:34:31;;;;;;;;;;;;;;;4.86;77.24;100326.41;4122291;28;20020;-63
2023/02/02 01:36:33;;;;;;;;;;;;;;;4.83;77.64;100330.22;4119980;28;20020;-63
2023/02/02 01:38:35;;;;;;;;;;;;;;;4.84;77.44;100323.88;4120995;28;20376;-63
2023/02/02 01:40:37;;;;;;;;;;;;;;;4.85;77.71;100330.06;4121542;28;20033;-62
2023/02/02 01:42:39;;;;;;;;;;;;;;;4.87;77.32;100342.31;4121428;28;20013;-63
2023/02/02 01:45:03;;;;;;;;;;;;;;;4.88;77.55;100321.75;4122388;28;20024;-64
2023/02/02 01:47:05;;;;;;;;;;;;;;;4.85;77.70;100314.84;4122156;28;19993;-64
2023/02/02 01:49:07;;;;;;;;;;;;;;;4.88;77.62;100330.59;4122011;28;20037;-63
2023/02/02 01:51:14;;;;;;;;;;;;;;;4.85;77.42;100317.53;4120729;28;20017;-62
2023/02/02 01:53:16;;;;;;;;;;;;;;;4.87;77.61;100320.06;4122009;28;20491;-63
2023/02/02 01:55:18;;;;;;;;;;;;;;;4.87;77.51;100318.25;4120312;28;20028;-63
2023/02/02 01:57:21;;;;;;;;;;;;;;;4.90;77.55;100316.25;4121931;28;19930;-63
2023/02/02 01:59:23;;;;;;;;;;;;;;;4.90;77.55;100321.59;4121368;28;20467;-63
2023/02/02 02:01:25;;;;;;;;;;;;;;;4.86;77.50;100327.25;4121350;28;20016;-64
2023/02/02 02:03:27;;;;;;;;;;;;;;;4.85;77.54;100335.44;4120518;28;20407;-63
2023/02/02 02:05:30;;;;;;;;;;;;;;;4.86;77.44;100337.94;4112176;28;19961;-64
2023/02/02 02:07:34;;;;;;;;;;;;;;;4.86;77.71;100339.78;4136100;28;20506;-64
2023/02/02 02:09:37;;;;;;;;;;;;;;;4.87;77.86;100342.31;4118848;28;19926;-63
2023/02/02 02:11:39;;;;;;;;;;;;;;;4.85;77.94;100338.94;4120058;28;20021;-63
2023/02/02 02:16:19;;;;;;;;;;;;;;;4.80;78.22;100340.41;4104686;28;19926;-63
2023/02/02 02:18:25;;;;;;;;;;;;;;;4.87;77.95;100333.44;4119896;28;20444;-63
2023/02/02 02:28:11;;;;;;;;;;;;;;;4.85;77.95;100330.91;4123279;28;20025;-63
2023/02/02 02:30:31;;;;;;;;;;;;;;;4.88;78.02;100352.00;4124799;28;20013;-63
2023/02/02 02:32:37;;;;;;;;;;;;;;;4.86;78.05;100345.97;4123113;28;20021;-63
2023/02/02 02:34:45;;;;;;;;;;;;;;;4.85;77.82;100360.34;4124752;28;20024;-63
2023/02/02 02:36:48;;;;;;;;;;;;;;;4.83;78.24;100356.97;4123537;28;20048;-63
2023/02/02 02:38:52;;;;;;;;;;;;;;;4.85;78.28;100356.84;4107444;28;20013;-63
2023/02/02 02:40:55;;;;;;;;;;;;;;;4.85;78.44;100362.19;4123839;28;20499;-63
2023/02/02 02:42:58;;;;;;;;;;;;;;;4.86;78.11;100363.88;4131602;28;20024;-63
2023/02/02 02:45:01;;;;;;;;;;;;;;;4.84;78.35;100374.72;4123087;28;20016;-63
2023/02/02 02:47:04;;;;;;;;;;;;;;;4.85;78.45;100359.50;4122663;28;20033;-63
2023/02/02 02:49:08;;;;;;;;;;;;;;;4.85;78.38;100378.25;4108399;28;19930;-63
2023/02/02 02:51:25;;;;;;;;;;;;;;;4.85;78.28;100391.63;4123129;28;20012;-62
2023/02/02 02:53:28;;;;;;;;;;;;;;;4.88;78.22;100372.59;4122631;28;20025;-63
2023/02/02 02:55:35;;;;;;;;;;;;;;;4.87;78.21;100401.19;4121263;28;19981;-63
2023/02/02 02:57:55;;;;;;;;;;;;;;;4.87;78.41;100390.50;4129902;28;20361;-62
2023/02/02 02:59:59;;;;;;;;;;;;;;;4.88;78.38;100361.88;4131120;28;20021;-62
2023/02/02 03:02:04;;;;;;;;;;;;;;;4.87;78.31;100381.59;4123390;28;20021;-63
2023/02/02 03:04:07;;;;;;;;;;;;;;;4.89;78.37;100368.94;4123691;28;20511;-62
2023/02/02 03:06:11;;;;;;;;;;;;;;;4.87;78.14;100376.25;4123044;28;20037;-63
2023/02/02 03:08:13;;;;;;;;;;;;;;;4.88;78.16;100388.66;4123106;28;20012;-63
2023/02/02 03:10:16;;;;;;;;;;;;;;;4.93;78.27;100391.72;4123291;28;19930;-63
2023/02/02 03:12:18;;;;;;;;;;;;;;;4.91;78.34;100383.00;4123327;28;20578;-63
2023/02/02 03:14:19;;;;;;;;;;;;;;;4.88;78.24;100389.47;4123051;28;20021;-63
2023/02/02 03:16:21;;;;;;;;;;;;;;;4.84;78.56;100393.47;4123919;28;20012;-63
2023/02/02 03:18:24;;;;;;;;;;;;;;;4.90;78.62;100408.06;4123276;28;20021;-62
2023/02/02 03:20:26;;;;;;;;;;;;;;;4.94;78.41;100414.81;4122541;28;20026;-63
2023/02/02 03:22:30;;;;;;;;;;;;;;;4.94;78.13;100409.47;4123268;28;20045;-61
2023/02/02 03:24:32;;;;;;;;;;;;;;;4.93;78.35;100420.31;4123832;28;20020;-62
2023/02/02 03:26:34;;;;;;;;;;;;;;;4.93;78.34;100423.00;4125157;28;20026;-63
2023/02/02 03:28:36;;;;;;;;;;;;;;;4.95;78.03;100418.31;4123242;28;20013;-63
2023/02/02 03:30:38;;;;;;;;;;;;;;;4.97;78.32;100419.00;4123293;28;20146;-63
2023/02/02 03:32:40;;;;;;;;;;;;;;;4.95;77.96;100450.44;4122959;28;20024;-63
2023/02/02 03:34:42;;;;;;;;;;;;;;;4.92;78.51;100435.53;4123380;28;20079;-62
2023/02/02 03:36:44;;;;;;;;;;;;;;;4.93;78.36;100441.72;4122507;28;20369;-63
2023/02/02 03:38:47;;;;;;;;;;;;;;;4.92;78.35;100437.34;4122510;28;20360;-62
2023/02/02 03:40:50;;;;;;;;;;;;;;;4.91;78.12;100449.06;4122518;28;20037;-63
2023/02/02 03:42:52;;;;;;;;;;;;;;;4.91;78.61;100441.03;4122251;28;20694;-63
2023/02/02 03:44:54;;;;;;;;;;;;;;;4.91;78.27;100446.41;4122858;28;20012;-63
2023/02/02 03:46:56;;;;;;;;;;;;;;;4.94;78.45;100456.81;4138278;28;20491;-62
2023/02/02 03:49:00;;;;;;;;;;;;;;;4.94;78.24;100475.53;4123405;28;20017;-63
2023/02/02 03:51:05;;;;;;;;;;;;;;;4.92;78.36;100489.06;4122960;28;19929;-63
2023/02/02 03:53:07;;;;;;;;;;;;;;;4.94;78.49;100476.38;4122717;28;20024;-63
2023/02/02 03:55:10;;;;;;;;;;;;;;;4.92;78.58;100475.69;4122866;28;20355;-62
2023/02/02 03:57:12;;;;;;;;;;;;;;;4.92;78.41;100493.56;4123125;28;20049;-63
2023/02/02 03:59:14;;;;;;;;;;;;;;;4.96;78.63;100492.28;4123016;28;20025;-63
2023/02/02 04:01:16;;;;;;;;;;;;;;;4.94;78.35;100497.78;4123027;28;20372;-62
2023/02/02 04:03:18;;;;;;;;;;;;;;;4.91;78.43;100489.22;4123611;28;20386;-62
2023/02/02 04:05:20;;;;;;;;;;;;;;;4.94;78.63;100479.06;4124359;28;20013;-63
2023/02/02 04:07:22;;;;;;;;;;;;;;;4.94;78.43;100504.97;4122516;28;20017;-63
2023/02/02 04:09:24;;;;;;;;;;;;;;;4.96;78.47;100511.03;4122819;28;20021;-63
2023/02/02 04:11:27;;;;;;;;;;;;;;;4.97;78.41;100508.19;4121066;28;19926;-63
2023/02/02 04:13:29;;;;;;;;;;;;;;;4.95;78.47;100514.69;4122237;28;20028;-63
2023/02/02 04:15:31;;;;;;;;;;;;;;;4.95;78.47;100517.34;4122065;28;20471;-63
2023/02/02 04:17:34;;;;;;;;;;;;;;;4.95;78.29;100525.38;4122495;28;20057;-63
2023/02/02 04:19:36;;;;;;;;;;;;;;;4.96;78.34;100535.94;4122276;28;20009;-63
2023/02/02 04:21:38;;;;;;;;;;;;;;;4.95;78.54;100534.25;4121076;28;20025;-63
2023/02/02 04:23:40;;;;;;;;;;;;;;;4.92;78.39;100537.25;4122308;28;20021;-63
2023/02/02 04:25:48;;;;;;;;;;;;;;;4.92;78.67;100555.97;4122393;28;20008;-63
2023/02/02 04:27:51;;;;;;;;;;;;;;;4.90;78.59;100555.25;4121422;28;20018;-63
2023/02/02 04:29:53;;;;;;;;;;;;;;;4.91;78.21;100542.75;4122295;28;20029;-63
2023/02/02 04:31:55;;;;;;;;;;;;;;;4.90;78.68;100539.19;4120913;28;20304;-63
2023/02/02 04:33:57;;;;;;;;;;;;;;;4.92;78.56;100564.00;4122513;28;20037;-63
2023/02/02 04:35:59;;;;;;;;;;;;;;;4.91;78.65;100556.13;4120764;28;20024;-63
2023/02/02 04:38:01;;;;;;;;;;;;;;;4.91;78.53;100558.78;4121780;28;19965;-63
2023/02/02 04:40:03;;;;;;;;;;;;;;;4.94;78.59;100567.38;4122595;28;20020;-63
2023/02/02 04:42:05;;;;;;;;;;;;;;;4.95;78.54;100557.50;4122642;28;20013;-64
2023/02/02 04:44:13;;;;;;;;;;;;;;;4.95;78.41;100555.66;4122314;28;20024;-63
2023/02/02 04:46:17;;;;;;;;;;;;;;;4.92;78.43;100564.00;4121776;28;20028;-63
2023/02/02 04:48:19;;;;;;;;;;;;;;;4.94;78.63;100567.38;4122411;28;20024;-64
2023/02/02 04:50:21;;;;;;;;;;;;;;;4.95;78.19;100579.75;4122640;28;20036;-64
2023/02/02 04:52:23;;;;;;;;;;;;;;;4.96;78.20;100575.25;4121884;28;20037;-64
2023/02/02 04:54:24;;;;;;;;;;;;;;;4.95;78.52;100574.38;4121645;28;20017;-64
2023/02/02 04:56:27;;;;;;;;;;;;;;;4.95;78.49;100585.09;4121022;28;20021;-64
2023/02/02 04:58:29;;;;;;;;;;;;;;;4.96;78.55;100586.78;4121160;28;20447;-63
2023/02/02 05:00:33;;;;;;;;;;;;;;;4.97;78.53;100582.28;4122002;28;20020;-63
2023/02/02 05:02:35;;;;;;;;;;;;;;;4.99;78.52;100583.84;4121748;28;20024;-63
2023/02/02 05:04:37;;;;;;;;;;;;;;;5.00;78.31;100590.00;4121195;28;20036;-64
2023/02/02 05:06:39;;;;;;;;;;;;;;;4.98;78.20;100600.88;4122110;28;20543;-64
2023/02/02 05:08:42;;;;;;;;;;;;;;;5.03;78.20;100603.97;4122017;28;20025;-63
2023/02/02 05:10:44;;;;;;;;;;;;;;;5.01;77.94;100597.91;4120211;28;20488;-63
2023/02/02 05:12:46;;;;;;;;;;;;;;;4.98;78.38;100616.94;4121645;28;19926;-63
2023/02/02 05:14:47;;;;;;;;;;;;;;;5.00;78.17;100623.00;4122346;28;20016;-63
2023/02/02 05:16:52;;;;;;;;;;;;;;;5.01;78.36;100626.50;4120298;28;20017;-61
2023/02/02 05:18:55;;;;;;;;;;;;;;;4.97;78.23;100623.28;4121834;28;20012;-63
2023/02/02 05:20:59;;;;;;;;;;;;;;;4.95;78.24;100633.28;4121694;28;20020;-63
2023/02/02 05:23:00;;;;;;;;;;;;;;;4.95;78.65;100641.31;4121388;28;20009;-63
2023/02/02 05:25:02;;;;;;;;;;;;;;;4.94;78.60;100646.81;4121705;28;20033;-63
2023/02/02 05:27:07;;;;;;;;;;;;;;;4.92;78.72;100638.06;4121589;28;19926;-63
2023/02/02 05:29:09;;;;;;;;;;;;;;;4.91;78.49;100660.50;4120613;28;20357;-64
2023/02/02 05:31:11;;;;;;;;;;;;;;;4.93;78.84;100654.00;4121161;28;20036;-64
2023/02/02 05:33:14;;;;;;;;;;;;;;;4.90;78.80;100664.97;4120164;28;19961;-64
2023/02/02 05:35:16;;;;;;;;;;;;;;;4.88;79.04;100665.13;4120935;28;20013;-64
2023/02/02 05:37:18;;;;;;;;;;;;;;;4.88;79.09;100667.81;4109595;28;20024;-63
2023/02/02 05:39:20;;;;;;;;;;;;;;;4.88;78.91;100662.44;4118614;28;20379;-62
2023/02/02 05:41:22;;;;;;;;;;;;;;;4.88;79.04;100664.28;4116651;28;20021;-62
2023/02/02 05:43:24;;;;;;;;;;;;;;;4.89;79.22;100666.00;4119144;28;20028;-63
2023/02/02 05:45:26;;;;;;;;;;;;;;;4.89;79.01;100671.34;4118443;28;20025;-63
2023/02/02 05:47:28;;;;;;;;;;;;;;;4.88;79.11;100680.34;4118400;28;20057;-62
2023/02/02 05:49:32;;;;;;;;;;;;;;;4.90;78.97;100683.72;4118014;28;20402;-62
2023/02/02 05:51:34;;;;;;;;;;;;;;;4.90;79.09;100690.91;4117213;28;20017;-63
2023/02/02 05:53:36;;;;;;;;;;;;;;;4.92;78.82;100683.56;4119615;28;19941;-63
2023/02/02 05:55:38;;;;;;;;;;;;;;;4.92;78.63;100689.78;4116715;28;20024;-62
2023/02/02 05:57:40;;;;;;;;;;;;;;;4.95;78.92;100694.84;4119898;28;20013;-63
2023/02/02 05:59:42;;;;;;;;;;;;;;;4.93;78.92;100696.81;4118292;28;20028;-62
2023/02/02 06:01:44;;;;;;;;;;;;;;;4.94;78.57;100689.66;4118902;28;20029;-62
2023/02/02 06:03:46;;;;;;;;;;;;;;;4.94;78.63;100697.69;4121493;28;20020;-62
2023/02/02 06:05:49;;;;;;;;;;;;;;;4.94;78.72;100700.34;4121789;28;20025;-63
2023/02/02 06:07:52;;;;;;;;;;;;;;;4.93;78.55;100704.84;4122026;28;20465;-63
2023/02/02 06:09:54;;;;;;;;;;;;;;;4.92;78.87;100719.22;4120872;28;20033;-63
2023/02/02 06:11:55;;;;;;;;;;;;;;;4.90;78.74;100705.13;4122632;28;20451;-64
2023/02/02 06:13:57;;;;;;;;;;;;;;;4.96;78.91;100714.44;4123315;28;20020;-63
2023/02/02 06:15:59;;;;;;;;;;;;;;;4.93;78.79;100725.41;4122152;28;20028;-63
2023/02/02 06:18:01;;;;;;;;;;;;;;;4.92;78.71;100727.25;4120079;28;20016;-63
2023/02/02 06:20:04;;;;;;;;;;;;;;;4.93;78.72;100730.78;4121279;28;20020;-63
2023/02/02 06:22:07;;;;;;;;;;;;;;;4.94;78.88;100730.63;4122318;28;20020;-64
2023/02/02 06:24:09;;;;;;;;;;;;;;;4.93;78.83;100734.28;4121158;28;20439;-64
2023/02/02 06:26:11;;;;;;;;;;;;;;;4.94;78.51;100743.19;4123079;28;20016;-63
2023/02/02 06:28:13;;;;;;;;;;;;;;;4.97;78.60;100740.19;4120372;28;20013;-63
2023/02/02 06:30:15;;;;;;;;;;;;;;;4.96;78.64;100744.72;4120915;28;21374;-62
2023/02/02 06:32:17;;;;;;;;;;;;;;;4.99;78.74;100751.63;4118399;28;20028;-63
2023/02/02 06:34:19;;;;;;;;;;;;;;;4.97;78.55;100758.94;4122199;28;19926;-63
2023/02/02 06:36:21;;;;;;;;;;;;;;;4.96;78.55;100760.78;4123154;28;20029;-62
2023/02/02 06:38:25;;;;;;;;;;;;;;;4.95;78.53;100756.41;4122408;28;20029;-62
2023/02/02 06:40:27;;;;;;;;;;;;;;;4.96;78.53;100759.94;4124516;28;20029;-62
2023/02/02 06:42:29;;;;;;;;;;;;;;;4.95;78.78;100759.06;4121710;28;20017;-63
2023/02/02 06:44:31;;;;;;;;;;;;;;;4.93;78.82;100758.38;4122752;28;20020;-62
2023/02/02 06:46:33;;;;;;;;;;;;;;;4.95;78.53;100767.09;4122937;28;20357;-62
2023/02/02 06:48:35;;;;;;;;;;;;;;;4.93;78.82;100771.75;4123170;28;20431;-62
2023/02/02 06:50:37;;;;;;;;;;;;;;;4.93;78.85;100774.44;4122825;28;20036;-63
2023/02/02 06:52:39;;;;;;;;;;;;;;;4.93;78.90;100778.94;4123373;28;20016;-62
2023/02/02 06:54:43;;;;;;;;;;;;;;;4.92;78.76;100790.63;4122547;28;19972;-61
2023/02/02 06:56:45;;;;;;;;;;;;;;;4.92;78.59;100790.63;4123342;28;20037;-63
2023/02/02 06:58:47;;;;;;;;;;;;;;;4.90;78.64;100796.13;4121992;28;20025;-63
2023/02/02 07:00:49;;;;;;;;;;;;;;;4.90;78.89;100797.97;4122383;28;20024;-63
2023/02/02 07:02:50;;;;;;;;;;;;;;;4.90;78.93;100797.97;4121126;28;20021;-63
2023/02/02 07:04:52;;;;;;;;;;;;;;;4.92;78.71;100809.38;4122462;28;20044;-62
2023/02/02 07:06:54;;;;;;;;;;;;;;;4.91;78.66;100802.34;4122129;28;20391;-63
2023/02/02 07:08:56;;;;;;;;;;;;;;;4.90;78.45;100812.19;4122149;28;20017;-63
2023/02/02 07:11:00;;;;;;;;;;;;;;;4.94;78.79;100800.22;4120881;28;20670;-63
2023/02/02 07:13:02;;;;;;;;;;;;;;;4.93;78.55;100814.59;4122361;28;20368;-63
2023/02/02 07:15:06;;;;;;;;;;;;;;;4.92;78.70;100828.97;4121657;28;19930;-63
2023/02/02 07:17:08;;;;;;;;;;;;;;;4.91;78.38;100826.44;4120843;28;20033;-63
2023/02/02 07:19:09;;;;;;;;;;;;;;;4.91;78.60;100835.28;4122826;28;20029;-63
2023/02/02 07:21:15;;;;;;;;;;;;;;;4.91;78.46;100839.81;4122850;28;20017;-63
2023/02/02 07:23:17;;;;;;;;;;;;;;;4.92;78.61;100845.03;4121170;28;20025;-63
2023/02/02 07:25:19;;;;;;;;;;;;;;;4.90;78.08;100846.13;4120165;28;20050;-63
2023/02/02 07:27:22;;;;;;;;;;;;;;;4.90;77.79;100856.84;4120968;28;20396;-63
2023/02/02 07:29:25;;;;;;;;;;;;;;;4.89;78.31;100861.34;4121866;28;20439;-63
2023/02/02 07:31:27;;;;;;;;;;;;;;;4.93;78.35;100870.78;4119006;28;20415;-63
2023/02/02 07:33:29;;;;;;;;;;;;;;;4.93;78.48;100872.63;4123394;28;20028;-63
2023/02/02 07:35:31;;;;;;;;;;;;;;;4.91;78.21;100874.59;4122623;28;19926;-63
2023/02/02 07:37:33;;;;;;;;;;;;;;;4.88;78.28;100881.91;4121577;28;20013;-63
2023/02/02 07:39:35;;;;;;;;;;;;;;;4.90;78.40;100881.75;4120344;28;20026;-63
2023/02/02 07:41:37;;;;;;;;;;;;;;;4.88;78.45;100876.56;4122293;28;20016;-62
2023/02/02 07:43:50;;;;;;;;;;;;;;;4.88;78.50;100881.91;4128876;28;20029;-63
2023/02/02 07:45:52;;;;;;;;;;;;;;;4.89;78.82;100888.13;4122158;28;20041;-62
2023/02/02 07:47:57;;;;;;;;;;;;;;;4.92;78.57;100892.34;4119058;28;20069;-63
2023/02/02 07:49:59;;;;;;;;;;;;;;;4.91;78.72;100882.63;4122074;28;20017;-62
2023/02/02 07:52:01;;;;;;;;;;;;;;;4.92;78.61;100890.53;4120057;28;20024;-62
2023/02/02 07:54:03;;;;;;;;;;;;;;;4.91;78.46;100893.34;4121944;28;20020;-63
2023/02/02 07:56:08;;;;;;;;;;;;;;;4.93;78.45;100896.72;4119215;28;19926;-62
2023/02/02 07:58:12;;;;;;;;;;;;;;;4.92;78.59;100898.56;4120729;28;20338;-63
2023/02/02 08:00:15;;;;;;;;;;;;;;;4.92;78.57;100901.22;4118514;28;20024;-63
2023/02/02 08:02:17;;;;;;;;;;;;;;;4.95;78.43;100902.78;4121635;28;20012;-63
2023/02/02 08:04:19;;;;;;;;;;;;;;;4.94;78.66;100915.31;4121278;28;20353;-63
2023/02/02 08:06:22;;;;;;;;;;;;;;;4.95;78.45;100910.81;4122307;28;20049;-62
2023/02/02 08:08:24;;;;;;;;;;;;;;;4.95;78.63;100925.03;4121462;28;20033;-63
2023/02/02 08:10:26;;;;;;;;;;;;;;;4.95;78.95;100921.50;4119754;28;20020;-62
2023/02/02 08:12:28;;;;;;;;;;;;;;;4.96;78.73;100926.72;4121122;28;20021;-63
2023/02/02 08:14:31;;;;;;;;;;;;;;;4.97;78.96;100925.75;4121563;28;20379;-63
2023/02/02 08:16:34;;;;;;;;;;;;;;;4.99;78.97;100925.63;4118935;28;19949;-63
2023/02/02 08:18:37;;;;;;;;;;;;;;;5.00;78.99;100932.66;4121027;28;20016;-61
2023/02/02 08:20:39;;;;;;;;;;;;;;;5.01;78.87;100929.84;4120575;28;20014;-62
2023/02/02 08:22:41;;;;;;;;;;;;;;;5.05;78.83;100944.66;4121069;28;20383;-62
2023/02/02 08:24:43;;;;;;;;;;;;;;;5.07;78.84;100944.50;4121549;28;20045;-62
2023/02/02 08:26:45;;;;;;;;;;;;;;;5.08;78.89;100943.53;4121911;28;20020;-61
2023/02/02 08:28:47;;;;;;;;;;;;;;;5.10;79.08;100948.75;4122470;28;20021;-63
2023/02/02 08:30:49;;;;;;;;;;;;;;;5.10;79.00;100938.88;4121566;28;20021;-61
2023/02/02 08:32:52;;;;;;;;;;;;;;;5.11;79.16;100945.09;4120905;28;20533;-63
2023/02/02 08:34:54;;;;;;;;;;;;;;;5.14;78.99;100951.03;4120863;28;20451;-62
2023/02/02 08:36:56;;;;;;;;;;;;;;;5.17;79.17;100953.44;4121848;28;19940;-62
2023/02/02 08:39:00;;;;;;;;;;;;;;;5.18;79.29;100949.75;4121861;28;20028;-63
2023/02/02 08:41:05;;;;;;;;;;;;;;;5.19;79.36;100948.78;4119984;28;20020;-62
2023/02/02 08:43:07;;;;;;;;;;;;;;;5.21;79.32;100959.34;4120755;28;20049;-63
2023/02/02 08:45:09;;;;;;;;;;;;;;;5.25;79.41;100960.78;4121185;28;20333;-62
2023/02/02 08:47:11;;;;;;;;;;;;;;;5.27;79.30;100957.97;4121082;28;20017;-62
2023/02/02 08:49:14;;;;;;;;;;;;;;;5.29;79.35;100964.88;4121569;28;20464;-62
2023/02/02 08:51:17;;;;;;;;;;;;;;;5.31;79.36;100959.38;4121805;28;20021;-63
2023/02/02 08:53:19;;;;;;;;;;;;;;;5.31;79.46;100965.56;4122224;28;20041;-62
2023/02/02 08:55:21;;;;;;;;;;;;;;;5.32;79.59;100963.75;4121547;28;20427;-62
2023/02/02 08:57:23;;;;;;;;;;;;;;;5.35;79.52;100974.19;4121220;28;19930;-62
2023/02/02 08:59:25;;;;;;;;;;;;;;;5.37;79.60;100958.81;4121257;28;20012;-62
2023/02/02 09:01:28;;;;;;;;;;;;;;;5.39;79.69;100976.47;4120842;28;20586;-60
2023/02/02 09:03:30;;;;;;;;;;;;;;;5.42;79.42;100969.97;4121148;28;20020;-62
2023/02/02 09:05:33;;;;;;;;;;;;;;;5.44;79.65;100973.38;4122072;28;19985;-62
2023/02/02 09:07:35;;;;;;;;;;;;;;;5.45;79.15;100975.06;4121706;28;20458;-63
2023/02/02 09:09:37;;;;;;;;;;;;;;;5.46;79.59;100983.94;4122249;28;20033;-61
2023/02/02 09:11:40;;;;;;;;;;;;;;;5.48;79.50;100980.13;4121274;28;20032;-62
2023/02/02 09:13:44;;;;;;;;;;;;;;;5.50;79.64;100982.69;4122374;28;20029;-62
2023/02/02 09:15:46;;;;;;;;;;;;;;;5.50;79.43;100983.53;4121376;28;20010;-62
2023/02/02 09:17:48;;;;;;;;;;;;;;;5.53;79.55;100990.44;4120702;28;19937;-62
2023/02/02 09:19:50;;;;;;;;;;;;;;;5.51;79.46;100995.09;4121275;28;20021;-61
2023/02/02 09:21:53;;;;;;;;;;;;;;;5.56;79.07;100998.19;4121341;28;20028;-60
2023/02/02 09:23:55;;;;;;;;;;;;;;;5.54;78.92;101010.91;4121794;28;20020;-60
2023/02/02 09:25:57;;;;;;;;;;;;;;;5.56;79.06;101023.19;4120593;28;20025;-62
2023/02/02 09:27:59;;;;;;;;;;;;;;;5.55;79.41;101008.09;4120562;28;19972;-60
2023/02/02 09:30:01;;;;;;;;;;;;;;;5.55;79.24;101008.09;4120763;28;20021;-61
2023/02/02 09:32:03;;;;;;;;;;;;;;;5.55;78.96;101004.56;4120666;28;20016;-61
2023/02/02 09:34:06;;;;;;;;;;;;;;;5.57;78.95;101018.66;4121858;28;20037;-62
2023/02/02 09:36:08;;;;;;;;;;;;;;;5.62;78.89;101015.56;4121606;28;20021;-61
2023/02/02 09:38:12;;;;;;;;;;;;;;;5.64;78.68;101024.31;4125007;28;19937;-61
2023/02/02 09:40:16;;;;;;;;;;;;;;;5.62;78.58;101027.13;4123668;28;20025;-60
2023/02/02 09:42:29;;;;;;;;;;;;;;;5.61;78.75;101036.13;4124226;28;20013;-62
2023/02/02 09:44:34;;;;;;;;;;;;;;;5.54;78.62;101017.09;4124482;28;20034;-62
2023/02/02 09:46:40;;;;;;;;;;;;;;;5.62;78.58;101040.53;4124752;28;20025;-61
2023/02/02 09:48:42;;;;;;;;;;;;;;;5.61;78.73;101044.19;4122913;28;20016;-62
2023/02/02 09:50:46;;;;;;;;;;;;;;;5.62;78.59;101037.00;4124637;28;20021;-62
2023/02/02 09:52:49;;;;;;;;;;;;;;;5.63;78.41;101036.00;4125273;28;20020;-62
2023/02/02 09:54:52;;;;;;;;;;;;;;;5.63;78.37;101052.94;4124092;28;20026;-62
2023/02/02 09:56:56;;;;;;;;;;;;;;;5.64;78.47;101048.44;4125200;28;20375;-62
2023/02/02 09:58:59;;;;;;;;;;;;;;;5.66;78.19;101052.69;4124559;28;19926;-62
2023/02/02 10:01:01;;;;;;;;;;;;;;;5.65;78.01;101050.97;4124035;28;20013;-61
2023/02/02 10:03:04;;;;;;;;;;;;;;;5.67;78.22;101045.47;4123396;28;20378;-61
2023/02/02 10:05:10;;;;;;;;;;;;;;;5.65;78.20;101045.59;4123491;28;20017;-61
2023/02/02 10:07:13;;;;;;;;;;;;;;;5.69;77.99;101044.34;4123610;28;20368;-61
2023/02/02 10:09:23;;;;;;;;;;;;;;;5.70;77.79;101058.59;4124390;28;20383;-62
2023/02/02 10:11:31;;;;;;;;;;;;;;;5.70;78.06;101043.34;4123368;28;20025;-62
2023/02/02 10:13:33;;;;;;;;;;;;;;;5.67;77.86;101045.47;4124808;28;20024;-62
2023/02/02 10:15:37;;;;;;;;;;;;;;;5.69;77.99;101046.16;4124303;28;20024;-62
2023/02/02 10:17:40;;;;;;;;;;;;;;;5.71;77.74;101054.94;4123989;28;20025;-63
2023/02/02 10:19:42;;;;;;;;;;;;;;;5.71;77.90;101065.66;4124245;28;19929;-62
2023/02/02 10:21:46;;;;;;;;;;;;;;;5.70;77.71;101062.13;4124373;28;20025;-61
2023/02/02 10:23:48;;;;;;;;;;;;;;;5.70;77.88;101063.97;4124303;28;20033;-62
2023/02/02 10:25:55;;;;;;;;;;;;;;;5.72;78.05;101060.16;4124196;28;20025;-62
2023/02/02 10:28:00;;;;;;;;;;;;;;;5.73;78.00;101071.72;4123984;28;20443;-62
2023/02/02 10:30:02;;;;;;;;;;;;;;;5.74;77.90;101054.66;4124118;28;20036;-62
2023/02/02 10:32:06;;;;;;;;;;;;;;;5.72;77.74;101064.66;4123270;28;20026;-61
2023/02/02 10:34:11;;;;;;;;;;;;;;;5.77;77.63;101067.78;4123816;28;20029;-61
2023/02/02 10:36:15;;;;;;;;;;;;;;;5.77;77.41;101068.63;4123309;28;20032;-62
2023/02/02 10:38:18;;;;;;;;;;;;;;;5.77;77.36;101071.31;4131072;28;20516;-61
2023/02/02 10:40:23;;;;;;;;;;;;;;;5.76;77.22;101066.09;4124004;28;19926;-61
2023/02/02 10:42:27;;;;;;;;;;;;;;;5.75;77.31;101083.16;4123745;28;20371;-61
2023/02/02 10:44:31;;;;;;;;;;;;;;;5.75;77.54;101081.34;4123813;28;20812;-61
2023/02/02 10:46:34;;;;;;;;;;;;;;;5.75;77.30;101075.09;4124216;28;20028;-61
2023/02/02 10:48:36;;;;;;;;;;;;;;;5.73;77.46;101080.59;4122423;28;20555;-61
2023/02/02 10:50:39;;;;;;;;;;;;;;;5.75;77.50;101091.19;4123780;28;20038;-62